Time;durP1;ratioP1;P1;durP2;ratioP2;P2;SDS_P1;SDS_P2;PMS_P1;PMS_P2;Temp;Humidity;BMP_temperature;BMP_pressure;BME280_temperature;BME280_humidity;BME280_pressure;Samples;Min_cycle;Max_cycle;Signal;HPM_P1;HPM_P2
2023/01/24 00:01:49;;;;;;;40.63;23.00;;;2.80;45.80;;;;;;6033832;23;20994;-61
2023/01/24 00:04:16;;;;;;;36.93;21.80;;;2.70;45.80;;;;;;6034143;23;20427;-62
2023/01/24 00:06:42;;;;;;;36.73;21.20;;;2.70;45.70;;;;;;6034254;23;20452;-62
2023/01/24 00:09:09;;;;;;;36.87;21.50;;;2.70;45.90;;;;;;6035004;23;20747;-62
2023/01/24 00:11:36;;;;;;;35.50;20.70;;;2.70;45.70;;;;;;6034529;23;20420;-63
2023/01/24 00:14:02;;;;;;;36.03;20.67;;;2.70;45.60;;;;;;6034793;23;20427;-61
2023/01/24 00:16:29;;;;;;;40.10;22.67;;;2.70;45.80;;;;;;6034141;23;20440;-62
2023/01/24 00:18:57;;;;;;;34.87;20.27;;;2.70;46.00;;;;;;6035231;23;20419;-62
2023/01/24 00:21:25;;;;;;;40.00;21.13;;;2.70;46.00;;;;;;6033049;23;20420;-61
2023/01/24 00:23:53;;;;;;;37.00;20.90;;;2.70;46.20;;;;;;6034700;23;20426;-61
2023/01/24 00:26:21;;;;;;;36.07;21.10;;;2.70;46.30;;;;;;6033287;23;20455;-62
2023/01/24 00:28:49;;;;;;;34.27;19.33;;;2.60;46.30;;;;;;6034546;23;20936;-61
2023/01/24 00:31:15;;;;;;;33.20;20.00;;;2.60;46.30;;;;;;6033874;23;20510;-62
2023/01/24 00:33:42;;;;;;;38.60;21.23;;;2.60;46.40;;;;;;6034417;23;21133;-62
2023/01/24 00:36:11;;;;;;;40.03;21.40;;;2.60;46.40;;;;;;6034382;23;20440;-61
2023/01/24 00:38:37;;;;;;;39.53;20.43;;;2.60;46.40;;;;;;6033467;23;20431;-61
2023/01/24 00:41:05;;;;;;;36.57;22.17;;;2.60;46.40;;;;;;6033970;23;20427;-62
2023/01/24 00:43:31;;;;;;;34.30;19.27;;;2.60;46.30;;;;;;6034455;23;20420;-61
2023/01/24 00:45:58;;;;;;;32.93;19.63;;;2.60;46.60;;;;;;6034249;23;21023;-61
2023/01/24 00:48:25;;;;;;;38.33;20.63;;;2.60;46.60;;;;;;6033777;23;20443;-61
2023/01/24 00:50:52;;;;;;;35.50;19.30;;;2.60;46.60;;;;;;6034607;23;20420;-61
2023/01/24 00:53:20;;;;;;;36.70;20.67;;;2.60;46.60;;;;;;6033997;23;20431;-62
2023/01/24 00:55:50;;;;;;;33.03;18.23;;;2.60;46.50;;;;;;6033857;23;20450;-62
2023/01/24 00:58:17;;;;;;;40.53;19.97;;;2.60;46.50;;;;;;6033859;23;20456;-62
2023/01/24 01:00:44;;;;;;;33.00;18.57;;;2.60;46.50;;;;;;6033582;23;20443;-62
2023/01/24 01:03:13;;;;;;;34.33;19.00;;;2.60;46.60;;;;;;6033845;23;20970;-61
2023/01/24 01:05:40;;;;;;;37.07;19.87;;;2.60;46.70;;;;;;6034280;23;20440;-61
2023/01/24 01:08:07;;;;;;;35.30;19.83;;;2.60;46.70;;;;;;6034213;23;20424;-61
2023/01/24 01:10:35;;;;;;;36.57;20.10;;;2.60;46.90;;;;;;6033956;23;20764;-62
2023/01/24 01:13:02;;;;;;;33.77;19.57;;;2.60;46.80;;;;;;6033794;23;20481;-61
2023/01/24 01:15:30;;;;;;;38.40;19.83;;;2.60;46.90;;;;;;6030862;23;20427;-61
2023/01/24 01:17:58;;;;;;;38.07;21.37;;;2.60;46.90;;;;;;6033829;23;20427;-61
2023/01/24 01:20:26;;;;;;;40.63;21.13;;;2.60;46.70;;;;;;6032418;23;20427;-61
2023/01/24 01:22:53;;;;;;;40.47;19.73;;;2.60;47.40;;;;;;6033495;23;20758;-63
2023/01/24 01:25:20;;;;;;;35.77;19.00;;;2.60;46.80;;;;;;6032051;23;20417;-63
2023/01/24 01:27:48;;;;;;;38.30;19.90;;;2.60;46.80;;;;;;6033855;23;20452;-61
2023/01/24 01:30:14;;;;;;;42.00;21.37;;;2.60;46.90;;;;;;6032564;23;20424;-64
2023/01/24 01:32:41;;;;;;;40.17;20.60;;;2.60;46.80;;;;;;6033860;23;20420;-62
2023/01/24 01:35:08;;;;;;;36.47;19.80;;;2.60;47.00;;;;;;6033621;23;20773;-61
2023/01/24 01:37:35;;;;;;;38.67;18.73;;;2.60;47.00;;;;;;6031371;23;20459;-63
2023/01/24 01:40:02;;;;;;;41.63;21.97;;;2.60;46.90;;;;;;6032553;23;20431;-61
2023/01/24 01:42:41;;;;;;;33.87;18.73;;;2.60;47.00;;;;;;6031838;23;20420;-61
2023/01/24 01:45:36;;;;;;;32.43;18.33;;;2.70;47.10;;;;;;6033829;23;20407;-61
2023/01/24 01:48:05;;;;;;;41.80;22.13;;;2.70;46.90;;;;;;6034234;23;20428;-62
2023/01/24 01:50:37;;;;;;;32.63;18.30;;;2.60;46.90;;;;;;6033571;23;20421;-62
2023/01/24 01:53:05;;;;;;;36.90;20.00;;;2.70;47.00;;;;;;6030917;23;20408;-61
2023/01/24 01:55:36;;;;;;;36.67;20.30;;;2.70;47.00;;;;;;6033433;23;20427;-63
2023/01/24 01:58:04;;;;;;;40.10;20.77;;;2.70;46.90;;;;;;6032854;23;20405;-61
2023/01/24 02:00:31;;;;;;;37.43;19.07;;;2.70;46.90;;;;;;6033399;23;20447;-62
2023/01/24 02:05:45;;;;;;;35.33;17.13;;;2.70;46.90;;;;;;6032798;23;20455;-63
2023/01/24 02:08:18;;;;;;;35.80;19.50;;;2.80;46.80;;;;;;6033701;23;20431;-61
2023/01/24 02:13:31;;;;;;;33.00;18.47;;;2.80;46.70;;;;;;6032309;23;20420;-64
2023/01/24 02:16:03;;;;;;;31.13;18.20;;;2.80;46.60;;;;;;6032835;23;20444;-61
2023/01/24 02:18:32;;;;;;;35.87;20.70;;;2.80;46.60;;;;;;6033657;23;20891;-62
2023/01/24 02:20:59;;;;;;;32.60;18.17;;;2.80;46.60;;;;;;6033988;23;20454;-62
2023/01/24 02:23:36;;;;;;;34.00;18.57;;;2.80;46.60;;;;;;6032598;23;20433;-61
2023/01/24 02:26:09;;;;;;;37.13;18.10;;;2.80;46.70;;;;;;6033253;23;20963;-63
2023/01/24 02:28:37;;;;;;;36.70;18.67;;;2.80;46.80;;;;;;6034158;23;20408;-62
2023/01/24 02:31:05;;;;;;;32.80;18.47;;;2.80;46.70;;;;;;6033198;23;20961;-62
2023/01/24 02:33:32;;;;;;;34.50;18.90;;;2.80;46.90;;;;;;6033609;23;20428;-62
2023/01/24 02:36:18;;;;;;;37.33;19.87;;;2.80;46.90;;;;;;6032950;23;21131;-62
2023/01/24 02:38:49;;;;;;;31.90;18.77;;;2.80;47.00;;;;;;6032802;23;20411;-62
2023/01/24 02:41:20;;;;;;;33.20;18.60;;;2.80;46.90;;;;;;6033426;23;20404;-62
2023/01/24 02:43:50;;;;;;;39.57;20.40;;;2.80;46.90;;;;;;6033425;23;20415;-62
2023/01/24 02:46:17;;;;;;;34.20;19.07;;;2.70;46.90;;;;;;6034361;23;20451;-61
2023/01/24 02:48:43;;;;;;;33.37;19.27;;;2.70;47.10;;;;;;6028445;23;20428;-61
2023/01/24 02:53:54;;;;;;;38.90;18.37;;;2.70;47.30;;;;;;6033773;23;20407;-64
2023/01/24 02:59:07;;;;;;;33.43;18.07;;;2.70;47.40;;;;;;6033627;23;20480;-62
2023/01/24 03:01:33;;;;;;;32.20;18.27;;;2.70;47.50;;;;;;6034391;23;20450;-62
2023/01/24 03:04:00;;;;;;;31.90;17.70;;;2.70;47.50;;;;;;6035421;23;20420;-62
2023/01/24 03:06:27;;;;;;;36.63;20.23;;;2.70;47.70;;;;;;6035462;23;20448;-63
2023/01/24 03:08:54;;;;;;;34.83;19.43;;;2.70;47.70;;;;;;6034826;23;20491;-62
2023/01/24 03:11:22;;;;;;;31.87;18.60;;;2.70;47.80;;;;;;6035453;23;20420;-62
2023/01/24 03:35:54;;;;;;;35.17;19.00;;;2.60;48.30;;;;;;6044622;23;20778;-61
2023/01/24 03:41:06;;;;;;;31.83;18.33;;;2.60;48.70;;;;;;6030749;23;20455;-62
2023/01/24 03:43:34;;;;;;;36.00;19.10;;;2.60;48.60;;;;;;6035531;23;20427;-61
2023/01/24 03:46:01;;;;;;;34.33;19.17;;;2.60;48.70;;;;;;6031289;23;20436;-61
2023/01/24 03:48:34;;;;;;;35.30;19.00;;;2.60;48.60;;;;;;6035162;23;20451;-61
2023/01/24 03:53:45;;;;;;;33.90;18.70;;;2.60;48.50;;;;;;6035511;23;20898;-62
2023/01/24 03:56:12;;;;;;;40.77;20.40;;;2.60;48.40;;;;;;6033468;23;20452;-61
2023/01/24 03:58:40;;;;;;;39.57;20.77;;;2.60;48.30;;;;;;6035291;23;20906;-62
2023/01/24 04:01:07;;;;;;;36.90;20.20;;;2.60;48.40;;;;;;6031781;23;20444;-61
2023/01/24 04:03:34;;;;;;;35.00;19.77;;;2.70;48.50;;;;;;6034572;23;20505;-61
2023/01/24 04:06:01;;;;;;;31.03;17.70;;;2.70;48.20;;;;;;6034107;23;20447;-61
2023/01/24 04:08:27;;;;;;;35.17;19.33;;;2.60;48.30;;;;;;6033655;23;20455;-62
2023/01/24 04:10:56;;;;;;;35.20;19.13;;;2.60;48.30;;;;;;6035084;23;20424;-62
2023/01/24 04:13:23;;;;;;;33.73;17.40;;;2.60;48.40;;;;;;6032079;23;20420;-61
2023/01/24 04:15:51;;;;;;;42.03;20.90;;;2.60;48.30;;;;;;6034564;23;20452;-63
2023/01/24 04:18:18;;;;;;;37.47;19.60;;;2.60;48.60;;;;;;6033365;23;20431;-62
2023/01/24 04:20:44;;;;;;;39.30;20.63;;;2.60;48.60;;;;;;6034448;23;20428;-62
2023/01/24 04:23:12;;;;;;;40.27;20.00;;;2.60;48.70;;;;;;6032735;23;20518;-63
2023/01/24 04:25:38;;;;;;;38.77;20.07;;;2.60;48.60;;;;;;6034247;23;20444;-62
2023/01/24 04:28:05;;;;;;;35.80;19.60;;;2.60;48.60;;;;;;6034715;23;20440;-62
2023/01/24 04:30:32;;;;;;;36.87;19.30;;;2.60;48.60;;;;;;6033224;23;20435;-63
2023/01/24 04:33:00;;;;;;;39.47;19.00;;;2.70;48.50;;;;;;6034256;23;20515;-62
2023/01/24 04:35:29;;;;;;;39.03;19.63;;;2.70;48.50;;;;;;6032205;23;20420;-62
2023/01/24 04:37:59;;;;;;;40.47;20.60;;;2.70;48.60;;;;;;6035361;23;20416;-62
2023/01/24 04:40:26;;;;;;;37.83;19.70;;;2.60;48.70;;;;;;6032987;23;20405;-63
2023/01/24 04:42:55;;;;;;;39.10;20.87;;;2.70;48.50;;;;;;6034129;23;20802;-62
2023/01/24 04:45:21;;;;;;;45.83;23.07;;;2.70;48.30;;;;;;6033775;23;20427;-63
2023/01/24 04:47:48;;;;;;;37.53;19.77;;;2.70;48.20;;;;;;6033890;23;20448;-62
2023/01/24 04:50:16;;;;;;;41.53;19.73;;;2.70;48.30;;;;;;6034433;23;20428;-62
2023/01/24 04:52:43;;;;;;;36.70;20.40;;;2.70;48.40;;;;;;6033691;23;21098;-63
2023/01/24 04:55:10;;;;;;;46.27;20.47;;;2.70;48.40;;;;;;6033926;23;20471;-63
2023/01/24 04:57:37;;;;;;;36.37;20.23;;;2.70;48.40;;;;;;6032308;23;20451;-61
2023/01/24 05:00:04;;;;;;;40.40;20.07;;;2.70;48.40;;;;;;6034327;23;20420;-61
2023/01/24 05:02:32;;;;;;;39.60;20.33;;;2.70;48.60;;;;;;6030841;23;20447;-70
2023/01/24 05:04:59;;;;;;;41.63;22.43;;;2.70;48.60;;;;;;6033640;23;20873;-61
2023/01/24 05:07:27;;;;;;;40.23;19.70;;;2.70;48.70;;;;;;6032725;23;20444;-63
2023/01/24 05:09:53;;;;;;;37.93;20.40;;;2.70;48.80;;;;;;6033541;23;20424;-61
2023/01/24 05:12:20;;;;;;;37.60;21.37;;;2.70;48.70;;;;;;6033783;23;20537;-62
2023/01/24 05:14:47;;;;;;;40.33;21.80;;;2.70;49.10;;;;;;6031958;23;20420;-62
2023/01/24 05:17:14;;;;;;;40.43;21.10;;;2.70;48.90;;;;;;6033985;23;20443;-65
2023/01/24 05:19:40;;;;;;;44.03;23.63;;;2.70;49.00;;;;;;6042361;23;20774;-62
2023/01/24 05:22:07;;;;;;;38.70;20.00;;;2.70;48.80;;;;;;6034040;23;20420;-61
2023/01/24 05:24:35;;;;;;;36.30;19.43;;;2.70;48.80;;;;;;6033157;23;20424;-61
2023/01/24 05:27:02;;;;;;;41.63;20.73;;;2.70;48.80;;;;;;6031146;23;20451;-62
2023/01/24 05:29:28;;;;;;;39.20;21.00;;;2.70;48.70;;;;;;6033928;23;20420;-62
2023/01/24 05:31:55;;;;;;;35.60;21.10;;;2.70;48.80;;;;;;6031099;23;20447;-61
2023/01/24 05:34:22;;;;;;;32.10;19.50;;;2.70;48.60;;;;;;6042635;23;20761;-62
2023/01/24 05:36:48;;;;;;;38.77;21.40;;;2.70;48.70;;;;;;6028234;23;20448;-61
2023/01/24 05:39:15;;;;;;;43.93;20.20;;;2.70;48.90;;;;;;6031029;23;20424;-61
2023/01/24 05:41:43;;;;;;;44.93;20.20;;;2.70;48.90;;;;;;6031613;23;20452;-61
2023/01/24 05:44:10;;;;;;;43.00;22.00;;;2.70;49.00;;;;;;6032867;23;20431;-66
2023/01/24 05:46:37;;;;;;;44.93;21.00;;;2.70;48.90;;;;;;6031357;23;20444;-66
2023/01/24 05:49:03;;;;;;;39.03;21.37;;;2.70;48.70;;;;;;6032333;23;21017;-64
2023/01/24 05:51:30;;;;;;;40.40;21.77;;;2.70;48.70;;;;;;6032074;23;20494;-67
2023/01/24 05:53:57;;;;;;;37.77;20.77;;;2.70;48.50;;;;;;6032739;23;20424;-66
2023/01/24 05:56:23;;;;;;;37.03;20.20;;;2.70;48.50;;;;;;6031160;23;20455;-65
2023/01/24 05:58:51;;;;;;;44.93;21.17;;;2.80;48.40;;;;;;6034014;23;20429;-65
2023/01/24 06:01:20;;;;;;;44.93;23.50;;;2.70;48.50;;;;;;6030684;23;20906;-66
2023/01/24 06:03:48;;;;;;;34.23;20.30;;;2.80;48.30;;;;;;6034045;23;20431;-65
2023/01/24 06:06:17;;;;;;;34.73;19.40;;;2.80;48.50;;;;;;6032583;23;20973;-68
2023/01/24 06:08:44;;;;;;;44.20;21.47;;;2.80;48.40;;;;;;6032276;23;20448;-66
2023/01/24 06:11:13;;;;;;;38.13;20.63;;;2.80;48.20;;;;;;6032822;23;20461;-67
2023/01/24 06:13:40;;;;;;;32.00;19.07;;;2.80;48.10;;;;;;6034578;23;20420;-67
2023/01/24 06:16:11;;;;;;;35.07;20.60;;;2.80;48.10;;;;;;6032207;23;20443;-67
2023/01/24 06:18:38;;;;;;;35.37;20.90;;;2.80;48.20;;;;;;6031341;23;20412;-66
2023/01/24 06:21:11;;;;;;;32.50;17.97;;;2.80;48.00;;;;;;6028327;23;20420;-62
2023/01/24 06:23:39;;;;;;;37.03;20.80;;;2.70;48.20;;;;;;6033130;23;20490;-67
2023/01/24 06:26:08;;;;;;;31.03;17.60;;;2.70;48.20;;;;;;6030498;23;20443;-64
2023/01/24 06:28:35;;;;;;;34.73;18.70;;;2.70;48.00;;;;;;6035292;23;20765;-64
2023/01/24 06:31:05;;;;;;;33.47;17.80;;;2.70;48.30;;;;;;6034179;23;20447;-64
2023/01/24 06:33:43;;;;;;;32.37;17.00;;;2.80;48.20;;;;;;6035302;23;20404;-64
2023/01/24 06:36:30;;;;;;;36.97;20.30;;;2.70;48.20;;;;;;6042934;23;20959;-65
2023/01/24 06:38:58;;;;;;;32.23;16.67;;;2.70;48.40;;;;;;6032624;23;20400;-65
2023/01/24 06:41:25;;;;;;;36.17;18.27;;;2.80;48.10;;;;;;6034849;23;20424;-64
2023/01/24 06:43:53;;;;;;;36.70;19.00;;;2.70;48.10;;;;;;6035775;23;20729;-65
2023/01/24 06:46:20;;;;;;;28.43;16.53;;;2.70;48.20;;;;;;6034679;23;20447;-64
2023/01/24 06:48:48;;;;;;;34.10;17.60;;;2.70;48.30;;;;;;6034875;23;20440;-64
2023/01/24 06:51:15;;;;;;;31.73;17.03;;;2.70;48.20;;;;;;6035179;23;20420;-64
2023/01/24 06:53:42;;;;;;;32.33;17.17;;;2.80;48.00;;;;;;6033790;23;20448;-62
2023/01/24 06:56:09;;;;;;;30.80;19.07;;;2.70;48.30;;;;;;6034490;23;21131;-63
2023/01/24 06:58:36;;;;;;;30.20;18.07;;;2.70;48.10;;;;;;6034428;23;21111;-64
2023/01/24 07:01:03;;;;;;;35.53;18.10;;;2.70;49.00;;;;;;6031964;23;20444;-63
2023/01/24 07:03:30;;;;;;;30.30;16.83;;;2.80;48.20;;;;;;6036713;23;20427;-63
2023/01/24 07:05:58;;;;;;;30.23;16.40;;;2.80;48.10;;;;;;6033948;23;20439;-63
2023/01/24 07:08:25;;;;;;;38.07;18.73;;;2.80;48.00;;;;;;6035446;23;20451;-64
2023/01/24 07:10:51;;;;;;;30.40;16.73;;;2.80;48.00;;;;;;6038186;23;20428;-63
2023/01/24 07:13:18;;;;;;;30.10;17.30;;;2.80;48.00;;;;;;6037360;23;20416;-63
2023/01/24 07:15:45;;;;;;;33.73;17.90;;;2.80;47.90;;;;;;6063985;23;20713;-63
2023/01/24 07:18:13;;;;;;;29.97;15.40;;;2.80;47.90;;;;;;6069463;23;20423;-63
2023/01/24 07:20:40;;;;;;;31.73;18.90;;;2.80;48.10;;;;;;6070861;23;20416;-63
2023/01/24 07:23:19;;;;;;;30.17;17.50;;;2.80;48.00;;;;;;6072628;23;20540;-64
2023/01/24 07:25:47;;;;;;;36.87;20.00;;;2.70;48.20;;;;;;6036426;23;20408;-64
2023/01/24 07:28:14;;;;;;;27.07;17.73;;;2.70;48.20;;;;;;6032149;23;20948;-63
2023/01/24 07:30:40;;;;;;;32.10;18.20;;;2.70;48.30;;;;;;6032580;23;20473;-67
2023/01/24 07:33:07;;;;;;;33.63;16.77;;;2.70;48.30;;;;;;6034707;23;20420;-63
2023/01/24 07:35:34;;;;;;;30.50;17.60;;;2.70;48.20;;;;;;6034574;23;20424;-62
2023/01/24 07:38:01;;;;;;;27.03;16.10;;;2.70;48.40;;;;;;6034062;23;20424;-64
2023/01/24 07:40:29;;;;;;;27.47;16.43;;;2.70;48.30;;;;;;6033573;23;20420;-64
2023/01/24 07:42:56;;;;;;;31.17;18.80;;;2.70;48.60;;;;;;6032385;23;20420;-63
2023/01/24 07:45:22;;;;;;;30.73;15.97;;;2.70;48.30;;;;;;6034052;23;20455;-65
2023/01/24 07:47:49;;;;;;;26.40;15.53;;;2.70;48.40;;;;;;6033516;23;20447;-64
2023/01/24 07:50:16;;;;;;;30.90;15.50;;;2.70;48.20;;;;;;6033953;23;20765;-65
2023/01/24 07:52:43;;;;;;;37.30;15.80;;;2.70;48.30;;;;;;6034652;23;20431;-66
2023/01/24 07:55:10;;;;;;;28.23;16.10;;;2.70;48.10;;;;;;6029714;23;20466;-65
2023/01/24 07:57:38;;;;;;;24.80;15.47;;;2.70;48.20;;;;;;6030191;23;20424;-65
2023/01/24 08:00:08;;;;;;;30.40;15.87;;;2.70;47.90;;;;;;6030318;23;20515;-63
2023/01/24 08:02:35;;;;;;;33.87;14.83;;;2.70;48.10;;;;;;6029669;23;20957;-68
2023/01/24 08:05:01;;;;;;;29.90;16.77;;;2.70;47.90;;;;;;6032204;23;20447;-65
2023/01/24 08:07:28;;;;;;;25.63;15.33;;;2.70;48.00;;;;;;6034166;23;20424;-65
2023/01/24 08:09:55;;;;;;;23.70;14.17;;;2.70;47.90;;;;;;6033736;23;20456;-66
2023/01/24 08:12:21;;;;;;;26.13;15.97;;;2.70;48.00;;;;;;6032766;23;20431;-67
2023/01/24 08:14:50;;;;;;;25.97;14.43;;;2.70;48.10;;;;;;6033196;23;20459;-65
2023/01/24 08:17:17;;;;;;;22.60;13.37;;;2.70;47.90;;;;;;6032613;23;20472;-66
2023/01/24 08:19:43;;;;;;;24.43;13.27;;;2.70;47.90;;;;;;6033323;23;20427;-67
2023/01/24 08:22:10;;;;;;;28.43;16.90;;;2.80;47.90;;;;;;6032783;23;20426;-65
2023/01/24 08:24:37;;;;;;;23.23;13.77;;;2.80;48.00;;;;;;6041464;23;20444;-64
2023/01/24 08:27:05;;;;;;;22.00;13.90;;;2.80;47.70;;;;;;6032757;23;20423;-66
2023/01/24 08:29:32;;;;;;;26.43;15.60;;;2.80;47.50;;;;;;6033865;23;20444;-63
2023/01/24 08:32:00;;;;;;;28.37;15.17;;;2.90;47.50;;;;;;6030486;23;20444;-63
2023/01/24 08:34:27;;;;;;;25.63;14.10;;;2.90;47.40;;;;;;6033044;23;20444;-65
2023/01/24 08:36:54;;;;;;;25.23;15.40;;;2.90;47.30;;;;;;6031878;23;20428;-65
2023/01/24 08:39:20;;;;;;;21.13;13.67;;;2.90;47.00;;;;;;6031947;23;20521;-63
2023/01/24 08:41:47;;;;;;;26.83;15.77;;;2.90;46.90;;;;;;6033104;23;20420;-63
2023/01/24 08:44:15;;;;;;;22.40;14.20;;;2.90;47.10;;;;;;6031260;23;20444;-64
2023/01/24 08:46:42;;;;;;;22.27;14.00;;;2.90;47.10;;;;;;6034076;23;20424;-64
2023/01/24 08:49:12;;;;;;;22.00;13.50;;;2.90;47.20;;;;;;6042078;23;20467;-64
2023/01/24 08:51:38;;;;;;;20.43;11.87;;;2.90;47.00;;;;;;6033655;23;21044;-62
2023/01/24 08:54:06;;;;;;;22.00;12.47;;;2.80;47.30;;;;;;6031699;23;20514;-62
2023/01/24 08:56:34;;;;;;;26.53;13.30;;;2.90;47.10;;;;;;6029698;23;20432;-64
2023/01/24 08:59:01;;;;;;;22.57;14.90;;;2.90;47.00;;;;;;6032917;23;20424;-62
2023/01/24 09:01:27;;;;;;;23.07;13.17;;;3.00;46.80;;;;;;6031282;23;20439;-62
2023/01/24 09:03:56;;;;;;;19.43;13.03;;;3.00;46.60;;;;;;6031905;23;20941;-64
2023/01/24 09:06:25;;;;;;;20.73;11.87;;;3.00;46.70;;;;;;6032342;23;20950;-65
2023/01/24 09:08:53;;;;;;;22.83;13.03;;;3.00;46.60;;;;;;6033102;23;21068;-63
2023/01/24 09:11:20;;;;;;;23.97;14.40;;;3.00;46.40;;;;;;6033257;23;20748;-66
2023/01/24 09:13:47;;;;;;;22.23;13.90;;;3.10;46.50;;;;;;6033585;23;21058;-64
2023/01/24 09:16:14;;;;;;;21.10;12.47;;;3.10;46.50;;;;;;6030593;23;20935;-62
2023/01/24 09:18:40;;;;;;;20.20;11.70;;;3.10;46.40;;;;;;6034670;23;20423;-64
2023/01/24 09:21:07;;;;;;;23.00;12.77;;;3.20;46.00;;;;;;6032161;23;20419;-66
2023/01/24 09:23:35;;;;;;;23.00;13.20;;;3.20;46.00;;;;;;6032872;23;20444;-63
2023/01/24 09:26:02;;;;;;;21.37;11.80;;;3.30;46.10;;;;;;6040034;23;20435;-62
2023/01/24 09:28:29;;;;;;;20.43;12.27;;;3.30;45.90;;;;;;6030240;23;20448;-62
2023/01/24 09:30:55;;;;;;;21.30;12.30;;;3.30;45.80;;;;;;6030448;23;20840;-63
2023/01/24 09:33:22;;;;;;;23.60;12.30;;;3.30;45.20;;;;;;6041946;23;20630;-63
2023/01/24 09:35:53;;;;;;;18.20;11.10;;;3.40;45.30;;;;;;6033978;23;20452;-68
2023/01/24 09:38:22;;;;;;;22.80;13.77;;;3.40;45.10;;;;;;6032939;23;20423;-69
2023/01/24 09:40:58;;;;;;;21.27;12.50;;;3.40;45.10;;;;;;6032236;23;20448;-68
2023/01/24 09:43:42;;;;;;;19.20;10.13;;;3.40;45.30;;;;;;6030705;23;20412;-69
2023/01/24 09:46:17;;;;;;;21.07;11.63;;;3.40;45.30;;;;;;6032110;23;20405;-65
2023/01/24 09:48:45;;;;;;;18.97;11.33;;;3.40;45.00;;;;;;6030945;23;20428;-64
2023/01/24 09:51:16;;;;;;;25.43;13.07;;;3.50;45.00;;;;;;6031156;23;20914;-65
2023/01/24 09:53:45;;;;;;;18.90;11.70;;;3.50;45.10;;;;;;6030650;23;20830;-64
2023/01/24 09:56:26;;;;;;;20.67;11.30;;;3.60;45.00;;;;;;6032690;23;20447;-65
2023/01/24 09:59:09;;;;;;;18.77;11.53;;;3.60;44.80;;;;;;6030049;23;20492;-65
2023/01/24 10:01:38;;;;;;;22.50;13.10;;;3.60;44.80;;;;;;6030837;23;20440;-64
2023/01/24 10:04:05;;;;;;;20.00;10.43;;;3.70;44.60;;;;;;6035060;23;20440;-64
2023/01/24 10:06:34;;;;;;;20.53;12.50;;;3.80;44.20;;;;;;6035100;23;20499;-65
2023/01/24 10:09:12;;;;;;;18.00;10.83;;;3.80;44.20;;;;;;6034021;23;20448;-65
2023/01/24 10:11:49;;;;;;;18.87;11.03;;;3.80;44.10;;;;;;6035097;23;20412;-64
2023/01/24 10:14:39;;;;;;;18.30;11.37;;;3.80;43.80;;;;;;6034808;23;20447;-65
2023/01/24 10:17:38;;;;;;;19.13;11.00;;;3.80;43.90;;;;;;6043537;23;20420;-64
2023/01/24 10:20:20;;;;;;;21.27;12.40;;;3.80;43.90;;;;;;6033202;23;20400;-67
2023/01/24 10:23:01;;;;;;;30.93;13.67;;;3.90;43.90;;;;;;6032519;23;20416;-66
2023/01/24 10:25:32;;;;;;;19.70;11.40;;;3.80;43.80;;;;;;6033640;23;20447;-66
2023/01/24 10:28:02;;;;;;;18.10;12.10;;;3.80;43.70;;;;;;6032627;23;20404;-66
2023/01/24 10:30:37;;;;;;;20.30;12.43;;;3.90;43.80;;;;;;6032702;23;20517;-66
2023/01/24 10:33:11;;;;;;;20.13;11.53;;;3.80;43.60;;;;;;6029022;23;20434;-68
2023/01/24 10:35:49;;;;;;;20.20;11.83;;;3.90;43.40;;;;;;6035898;23;20411;-66
2023/01/24 10:38:18;;;;;;;19.43;11.37;;;3.80;43.40;;;;;;6031522;23;20477;-63
2023/01/24 10:40:52;;;;;;;18.67;10.70;;;3.80;43.40;;;;;;6034589;23;20423;-66
2023/01/24 10:43:24;;;;;;;20.90;11.43;;;3.80;43.50;;;;;;6033339;23;20430;-67
2023/01/24 10:46:03;;;;;;;18.07;11.10;;;3.80;43.40;;;;;;6034760;23;20408;-67
2023/01/24 10:48:39;;;;;;;19.10;11.40;;;3.80;43.50;;;;;;6032860;23;20408;-68
2023/01/24 10:51:15;;;;;;;19.37;11.80;;;3.80;43.80;;;;;;6032721;23;20423;-63
2023/01/24 10:53:42;;;;;;;20.90;11.13;;;3.80;43.80;;;;;;6031553;23;20933;-66
2023/01/24 10:56:10;;;;;;;22.77;12.40;;;3.80;43.70;;;;;;6033757;23;20910;-64
2023/01/24 10:58:41;;;;;;;16.47;10.87;;;3.80;43.60;;;;;;6032950;23;20423;-67
2023/01/24 11:01:18;;;;;;;22.07;11.43;;;3.90;43.60;;;;;;6032408;23;20734;-63
2023/01/24 11:03:46;;;;;;;21.33;11.80;;;3.90;43.60;;;;;;6031362;23;20444;-67
2023/01/24 11:06:33;;;;;;;19.33;11.30;;;3.90;43.20;;;;;;6032310;23;20456;-66
2023/01/24 11:09:04;;;;;;;18.97;11.80;;;3.90;43.30;;;;;;6034469;23;20436;-67
2023/01/24 11:11:34;;;;;;;21.13;12.70;;;3.90;43.10;;;;;;6031016;23;20409;-67
2023/01/24 11:14:03;;;;;;;19.50;10.77;;;4.00;42.90;;;;;;6034816;23;20479;-67
2023/01/24 11:16:34;;;;;;;18.63;11.73;;;3.90;42.80;;;;;;6033431;23;20424;-63
2023/01/24 11:19:05;;;;;;;16.77;10.00;;;3.90;42.80;;;;;;6033572;23;20905;-63
2023/01/24 11:21:33;;;;;;;18.17;10.50;;;3.90;42.90;;;;;;6032627;23;20415;-64
2023/01/24 11:24:02;;;;;;;17.13;11.00;;;3.90;42.90;;;;;;6033295;23;20441;-63
2023/01/24 11:26:31;;;;;;;18.20;10.90;;;3.90;42.90;;;;;;6032997;23;20420;-64
2023/01/24 11:29:00;;;;;;;17.13;10.43;;;3.90;42.90;;;;;;6033267;23;20776;-64
2023/01/24 11:31:39;;;;;;;17.20;10.80;;;3.90;42.70;;;;;;6032051;23;20440;-64
2023/01/24 11:34:25;;;;;;;16.20;10.57;;;3.90;42.70;;;;;;6033979;23;20440;-64
2023/01/24 11:37:04;;;;;;;16.83;10.80;;;3.90;43.10;;;;;;6033163;23;20456;-66
2023/01/24 11:39:41;;;;;;;23.17;12.13;;;4.00;43.00;;;;;;6033349;23;20405;-65
2023/01/24 11:42:17;;;;;;;21.07;11.70;;;4.00;42.90;;;;;;6032584;23;20407;-64
2023/01/24 11:45:24;;;;;;;17.53;11.83;;;4.00;42.80;;;;;;6031991;23;20447;-64
2023/01/24 11:48:04;;;;;;;20.30;12.10;;;4.00;42.80;;;;;;5945907;24;20422;-63
2023/01/24 11:50:39;;;;;;;18.03;10.37;;;4.10;42.60;;;;;;6017260;23;20455;-63
2023/01/24 11:53:28;;;;;;;19.00;11.47;;;4.10;42.60;;;;;;6034563;23;20407;-63
2023/01/24 11:56:06;;;;;;;18.90;10.80;;;4.10;42.70;;;;;;6031162;23;20480;-64
2023/01/24 11:58:49;;;;;;;24.33;12.20;;;4.10;42.50;;;;;;6033138;23;20409;-63
2023/01/24 12:01:21;;;;;;;19.40;11.73;;;4.10;42.30;;;;;;6031976;23;20440;-63
2023/01/24 12:04:19;;;;;;;23.03;12.70;;;4.00;42.30;;;;;;6034645;23;20471;-63
2023/01/24 12:06:51;;;;;;;21.20;12.00;;;3.90;42.60;;;;;;6033909;23;20799;-64
2023/01/24 12:09:21;;;;;;;17.80;10.50;;;4.00;42.60;;;;;;6034063;23;20926;-67
2023/01/24 12:11:56;;;;;;;21.07;11.60;;;4.10;42.40;;;;;;6033032;23;20405;-65
2023/01/24 12:14:52;;;;;;;20.33;11.60;;;4.10;42.40;;;;;;6031953;23;20982;-65
2023/01/24 12:17:32;;;;;;;18.23;11.13;;;4.10;42.60;;;;;;6001663;23;20424;-66
2023/01/24 12:20:32;;;;;;;18.30;10.57;;;4.10;42.30;;;;;;6030225;23;20411;-65
2023/01/24 12:23:07;;;;;;;19.07;12.10;;;4.10;42.40;;;;;;6030431;23;20731;-66
2023/01/24 12:25:36;;;;;;;18.70;11.33;;;4.10;42.30;;;;;;6032212;23;20409;-64
2023/01/24 12:28:06;;;;;;;21.20;11.33;;;4.10;42.10;;;;;;6033985;23;21179;-64
2023/01/24 12:30:36;;;;;;;17.90;11.10;;;4.10;42.40;;;;;;6032091;23;20470;-64
2023/01/24 12:33:14;;;;;;;19.43;13.07;;;4.10;42.20;;;;;;6034350;23;20491;-65
2023/01/24 12:35:45;;;;;;;16.53;10.60;;;4.10;42.40;;;;;;6031370;23;20408;-65
2023/01/24 12:38:21;;;;;;;17.50;11.73;;;4.10;42.20;;;;;;6033543;23;20408;-65
2023/01/24 12:40:56;;;;;;;19.10;11.77;;;4.20;42.20;;;;;;6031316;23;20409;-64
2023/01/24 12:43:32;;;;;;;18.07;12.07;;;4.20;42.10;;;;;;6031658;23;20435;-65
2023/01/24 12:46:08;;;;;;;20.50;12.50;;;4.20;42.10;;;;;;6030855;23;20411;-66
2023/01/24 12:48:41;;;;;;;20.30;11.63;;;4.20;42.10;;;;;;6032351;23;20408;-65
2023/01/24 12:51:21;;;;;;;19.73;11.63;;;4.20;42.00;;;;;;6032248;23;20435;-63
2023/01/24 12:53:57;;;;;;;22.00;12.37;;;4.20;42.00;;;;;;6030645;23;20480;-64
2023/01/24 12:56:29;;;;;;;21.17;11.70;;;4.20;41.90;;;;;;6032587;23;20408;-64
2023/01/24 12:58:56;;;;;;;24.47;12.10;;;4.20;41.80;;;;;;6033833;23;20413;-64
2023/01/24 13:01:56;;;;;;;20.77;12.80;;;4.30;42.10;;;;;;6030358;23;20503;-63
2023/01/24 13:04:33;;;;;;;19.43;11.60;;;4.30;42.10;;;;;;6032037;23;20527;-64
2023/01/24 13:07:12;;;;;;;21.63;12.17;;;4.40;42.00;;;;;;6033292;23;20405;-65
2023/01/24 13:09:45;;;;;;;23.60;12.50;;;4.30;42.10;;;;;;6032798;23;20435;-65
2023/01/24 13:12:15;;;;;;;19.90;12.17;;;4.40;41.60;;;;;;6032461;23;20412;-65
2023/01/24 13:14:46;;;;;;;19.13;11.70;;;4.40;41.70;;;;;;6031472;23;20479;-63
2023/01/24 13:17:58;;;;;;;20.10;12.90;;;4.40;41.60;;;;;;6031323;23;20417;-65
2023/01/24 13:20:39;;;;;;;21.80;13.20;;;4.40;41.60;;;;;;5983066;23;20435;-66
2023/01/24 13:23:23;;;;;;;21.60;11.90;;;4.30;41.60;;;;;;6032147;23;20408;-65
2023/01/24 13:26:37;;;;;;;24.33;13.40;;;4.30;41.70;;;;;;6032822;23;20404;-67
2023/01/24 13:29:20;;;;;;;18.20;11.83;;;4.40;41.60;;;;;;5943706;24;20432;-65
2023/01/24 13:31:53;;;;;;;22.93;12.40;;;4.40;41.60;;;;;;5946037;24;20979;-63